createdAt,value
2022-09-28T04:31:01.949Z,8.30
2022-09-28T04:32:02.008Z,8.32
2022-09-28T04:33:01.889Z,8.35
2022-09-28T04:34:01.899Z,8.36
2022-09-28T04:35:01.872Z,8.36
2022-09-28T04:36:01.848Z,8.32
2022-09-28T04:37:01.839Z,8.33
2022-09-28T04:38:01.837Z,8.35
2022-09-28T04:39:01.828Z,8.33
2022-09-28T04:40:01.806Z,8.33
2022-09-28T04:41:01.821Z,8.33
2022-09-28T04:42:01.773Z,8.33
2022-09-28T04:43:01.758Z,8.35
2022-09-28T04:44:01.783Z,8.35
2022-09-28T04:45:01.755Z,8.37
2022-09-28T04:46:08.816Z,8.36
2022-09-28T04:47:05.047Z,8.36
2022-09-28T04:48:01.704Z,8.37
2022-09-28T04:49:01.683Z,8.37
2022-09-28T04:50:01.685Z,8.40
2022-09-28T04:51:01.661Z,8.39
2022-09-28T04:52:01.649Z,8.39
2022-09-28T04:53:01.671Z,8.40
2022-09-28T04:54:01.613Z,8.39
2022-09-28T04:55:01.616Z,8.40
2022-09-28T04:56:01.601Z,8.39
2022-09-28T04:57:01.588Z,8.35
2022-09-28T04:58:01.562Z,8.33
2022-09-28T04:59:01.557Z,8.35
2022-09-28T05:00:01.557Z,8.33
2022-09-28T05:01:01.612Z,8.35
2022-09-28T05:02:01.589Z,8.33
2022-09-28T05:03:01.499Z,8.47
2022-09-28T05:04:01.524Z,8.73
2022-09-28T05:05:01.481Z,8.79
2022-09-28T05:06:01.487Z,8.79
2022-09-28T05:07:01.450Z,8.84
2022-09-28T05:08:01.440Z,8.97
2022-09-28T05:09:01.431Z,8.90
2022-09-28T05:10:01.427Z,8.91
2022-09-28T05:11:01.390Z,8.84
2022-09-28T05:12:01.390Z,8.81
2022-09-28T05:13:01.397Z,8.81
2022-09-28T05:14:01.360Z,8.91
2022-09-28T05:15:01.349Z,8.90
2022-09-28T05:16:05.188Z,8.81
2022-09-28T05:17:01.466Z,8.73
2022-09-28T05:18:01.369Z,8.87
2022-09-28T05:19:01.324Z,8.83
2022-09-28T05:20:01.336Z,8.75
2022-09-28T05:21:01.269Z,8.71
2022-09-28T05:22:01.258Z,8.72
2022-09-28T05:23:01.265Z,8.66
2022-09-28T05:24:01.228Z,8.68
2022-09-28T05:25:01.259Z,8.62
2022-09-28T05:26:01.207Z,8.57
2022-09-28T05:27:01.188Z,8.69
2022-09-28T05:28:01.178Z,8.94
2022-09-28T05:29:01.167Z,8.88
2022-09-28T05:30:01.167Z,8.78
2022-09-28T05:31:01.137Z,8.71
2022-09-28T05:32:01.175Z,8.63
2022-09-28T05:33:01.118Z,8.55
2022-09-28T05:34:01.097Z,8.68
2022-09-28T05:35:01.144Z,8.73
2022-09-28T05:36:01.897Z,8.76
2022-09-28T05:37:01.093Z,8.69
2022-09-28T05:38:01.066Z,8.62
2022-09-28T05:39:01.045Z,8.57
2022-09-28T05:40:01.048Z,8.53
2022-09-28T05:41:05.743Z,8.51
2022-09-28T05:42:02.005Z,8.44
2022-09-28T05:43:00.986Z,8.39
2022-09-28T05:44:01.015Z,8.35
2022-09-28T05:45:00.974Z,8.33
2022-09-28T05:46:01.023Z,8.35
2022-09-28T05:47:00.934Z,8.37
2022-09-28T05:48:00.933Z,8.32
2022-09-28T05:49:00.903Z,8.29
2022-09-28T05:50:00.915Z,8.28
2022-09-28T05:51:00.883Z,8.28
2022-09-28T05:52:00.874Z,8.26
2022-09-28T05:53:00.855Z,8.28
2022-09-28T05:54:05.660Z,8.28
2022-09-28T05:55:01.854Z,8.25
2022-09-28T05:56:00.813Z,8.26
2022-09-28T05:57:00.803Z,8.26
2022-09-28T05:58:00.792Z,8.28
2022-09-28T05:59:00.784Z,8.28
2022-09-28T06:00:00.784Z,8.28
2022-09-28T06:01:00.798Z,8.26
2022-09-28T06:02:00.825Z,8.28
2022-09-28T06:03:01.935Z,8.28
2022-09-28T06:04:00.711Z,8.28
2022-09-28T06:05:00.710Z,8.29
2022-09-28T06:06:00.692Z,8.29
2022-09-28T06:07:00.672Z,8.30
2022-09-28T06:08:00.661Z,8.30
2022-09-28T06:09:00.645Z,8.32
2022-09-28T06:10:00.650Z,8.30
2022-09-28T06:11:00.620Z,8.30
2022-09-28T06:12:00.610Z,8.35
2022-09-28T06:13:00.598Z,8.36
2022-09-28T06:14:00.586Z,8.37
2022-09-28T06:15:00.581Z,8.44
2022-09-28T06:16:00.559Z,8.47
2022-09-28T06:17:00.563Z,8.50
2022-09-28T06:18:00.530Z,8.54
2022-09-28T06:19:00.518Z,8.57
2022-09-28T06:20:00.508Z,8.63
2022-09-28T06:21:00.510Z,8.69
2022-09-28T06:22:00.482Z,8.73
2022-09-28T06:23:00.463Z,8.76
2022-09-28T06:24:00.459Z,8.81
2022-09-28T06:25:00.440Z,8.83
2022-09-28T06:26:00.442Z,8.84
2022-09-28T06:27:00.413Z,8.86
2022-09-28T06:28:00.418Z,8.88
2022-09-28T06:29:00.388Z,8.86
2022-09-28T06:30:00.382Z,8.83
2022-09-28T06:31:00.431Z,8.83
2022-09-28T06:32:00.353Z,8.81
2022-09-28T06:33:00.337Z,8.76
2022-09-28T06:34:00.327Z,8.76
2022-09-28T06:35:00.309Z,8.78
2022-09-28T06:36:00.319Z,8.78
2022-09-28T06:37:00.288Z,8.78
2022-09-28T06:38:00.294Z,8.81
2022-09-28T06:39:00.258Z,8.79
2022-09-28T06:40:00.258Z,8.81
2022-09-28T06:41:00.305Z,8.79
2022-09-28T06:42:00.228Z,8.76
2022-09-28T06:43:00.206Z,8.78
2022-09-28T06:44:00.205Z,8.76
2022-09-28T06:45:00.187Z,8.76
2022-09-28T06:46:00.222Z,8.76
2022-09-28T06:47:00.169Z,8.73
2022-09-28T06:48:00.154Z,8.72
2022-09-28T06:49:00.138Z,8.73
2022-09-28T06:50:00.159Z,8.72
2022-09-28T06:51:00.127Z,8.72
2022-09-28T06:52:00.099Z,8.73
2022-09-28T06:53:00.090Z,8.73
2022-09-28T06:54:00.088Z,8.75
2022-09-28T06:55:00.076Z,8.73
2022-09-28T06:56:00.072Z,8.75
2022-09-28T06:57:00.036Z,8.76
2022-09-28T06:58:00.023Z,8.78
2022-09-28T06:59:00.013Z,8.76
2022-09-28T06:59:59.995Z,8.78
2022-09-28T07:01:00.078Z,8.78
2022-09-28T07:02:00.066Z,8.81
2022-09-28T07:02:59.953Z,8.81
2022-09-28T07:03:59.944Z,8.83
2022-09-28T07:04:59.930Z,8.83
2022-09-28T07:05:59.943Z,8.83
2022-09-28T07:06:59.904Z,8.84
2022-09-28T07:07:59.893Z,8.84
2022-09-28T07:09:14.867Z,8.86
2022-09-28T07:10:00.873Z,8.87
2022-09-28T07:10:59.865Z,8.88
2022-09-28T07:11:59.872Z,8.90
2022-09-28T07:12:59.823Z,8.91
2022-09-28T07:13:59.821Z,8.96
2022-09-28T07:14:59.802Z,9.01
2022-09-28T07:15:59.813Z,9.02
2022-09-28T07:17:13.219Z,9.01
2022-09-28T07:18:03.257Z,9.01
2022-09-28T07:18:59.751Z,9.02
2022-09-28T07:20:06.949Z,9.04
2022-09-28T07:21:00.743Z,9.01
2022-09-28T07:22:05.168Z,9.05
2022-09-28T07:23:13.083Z,9.06
2022-09-28T07:24:00.693Z,9.10
2022-09-28T07:24:59.680Z,9.15
2022-09-28T07:25:59.684Z,9.21
2022-09-28T07:26:59.650Z,9.25
2022-09-28T07:27:59.647Z,9.24
2022-09-28T07:28:59.646Z,9.21
2022-09-28T07:29:59.618Z,9.25
2022-09-28T07:30:59.666Z,9.28
2022-09-28T07:31:59.609Z,9.30
2022-09-28T07:32:59.580Z,9.31
2022-09-28T07:33:59.569Z,9.28
2022-09-28T07:34:59.560Z,9.31
2022-09-28T07:35:59.560Z,9.30
2022-09-28T07:36:59.549Z,9.30
2022-09-28T07:37:59.519Z,9.31
2022-09-28T07:38:59.501Z,9.38
2022-09-28T07:39:59.489Z,9.40
2022-09-28T07:40:59.523Z,9.43
2022-09-28T07:42:02.552Z,9.42
2022-09-28T07:42:59.448Z,9.38
2022-09-28T07:43:59.438Z,9.40
2022-09-28T07:44:59.428Z,9.45
2022-09-28T07:46:00.352Z,9.48
2022-09-28T07:46:59.398Z,9.52
2022-09-28T07:47:59.432Z,9.56
2022-09-28T07:48:59.379Z,9.60
2022-09-28T07:49:59.378Z,9.61
2022-09-28T07:50:59.358Z,9.58
2022-09-28T07:51:59.338Z,9.61
2022-09-28T07:52:59.348Z,9.66
2022-09-28T07:53:59.307Z,9.67
2022-09-28T07:55:01.306Z,9.61
2022-09-28T07:56:00.296Z,9.60
2022-09-28T07:56:59.299Z,9.58
2022-09-28T07:57:59.258Z,9.58
2022-09-28T07:58:59.336Z,9.58
2022-09-28T07:59:59.243Z,9.57
2022-09-28T08:00:59.286Z,9.60
2022-09-28T08:01:59.256Z,9.60
2022-09-28T08:02:59.196Z,9.61
2022-09-28T08:03:59.186Z,9.64
2022-09-28T08:04:59.175Z,9.66
2022-09-28T08:05:59.168Z,9.61
2022-09-28T08:06:59.145Z,9.66
2022-09-28T08:07:59.134Z,9.68
2022-09-28T08:08:59.124Z,9.76
2022-09-28T08:09:59.106Z,9.82
2022-09-28T08:10:59.124Z,9.88
2022-09-28T08:11:59.085Z,9.93
2022-09-28T08:13:02.030Z,9.94
2022-09-28T08:13:59.054Z,9.88
2022-09-28T08:14:59.045Z,9.86
2022-09-28T08:15:59.043Z,9.76
2022-09-28T08:16:59.022Z,9.73
2022-09-28T08:18:02.066Z,9.81
2022-09-28T08:18:59.014Z,9.89
2022-09-28T08:19:58.980Z,9.97
2022-09-28T08:20:58.979Z,10.03
2022-09-28T08:21:58.968Z,10.06
2022-09-28T08:22:58.952Z,10.07
2022-09-28T08:23:58.928Z,10.14
2022-09-28T08:24:58.972Z,10.22
2022-09-28T08:25:58.918Z,10.24
2022-09-28T08:26:58.884Z,10.26
2022-09-28T08:27:58.863Z,10.36
2022-09-28T08:28:58.861Z,10.43
2022-09-28T08:29:58.842Z,10.44
2022-09-28T08:30:58.979Z,10.44
2022-09-28T08:32:01.531Z,10.46
2022-09-28T08:32:58.809Z,10.55
2022-09-28T08:33:58.791Z,10.62
2022-09-28T08:34:58.784Z,10.60
2022-09-28T08:35:58.772Z,10.68
2022-09-28T08:36:58.752Z,10.77
2022-09-28T08:37:58.732Z,10.78
2022-09-28T08:38:58.745Z,10.80
2022-09-28T08:39:58.715Z,10.81
2022-09-28T08:40:58.755Z,10.73
2022-09-28T08:41:58.698Z,10.66
2022-09-28T08:42:58.682Z,10.68
2022-09-28T08:43:58.665Z,10.60
2022-09-28T08:44:58.653Z,10.63
2022-09-28T08:45:58.711Z,10.68
2022-09-28T08:46:58.635Z,10.76
2022-09-28T08:47:58.610Z,10.81
2022-09-28T08:49:20.746Z,10.83
2022-09-28T08:49:59.588Z,10.86
2022-09-28T08:50:58.580Z,10.89
2022-09-28T08:51:58.551Z,10.78
2022-09-28T08:52:58.580Z,10.81
2022-09-28T08:53:58.532Z,10.84
2022-09-28T08:54:58.574Z,10.94
2022-09-28T08:55:58.539Z,11.03
2022-09-28T08:56:58.500Z,11.07
2022-09-28T08:57:58.484Z,11.16
2022-09-28T08:58:58.479Z,11.13
2022-09-28T08:59:58.468Z,11.13
2022-09-28T09:00:58.496Z,11.09
2022-09-28T09:01:58.553Z,10.99
2022-09-28T09:02:58.579Z,10.98
2022-09-28T09:03:58.399Z,11.06
2022-09-28T09:04:58.388Z,11.07
2022-09-28T09:05:58.378Z,11.13
2022-09-28T09:06:58.358Z,11.14
2022-09-28T09:07:58.350Z,11.27
2022-09-28T09:08:58.338Z,11.34
2022-09-28T09:09:58.327Z,11.52
2022-09-28T09:10:58.308Z,11.94
2022-09-28T09:11:58.300Z,12.19
2022-09-28T09:12:58.284Z,12.34
2022-09-28T09:13:58.276Z,12.49
2022-09-28T09:14:58.258Z,12.33
2022-09-28T09:15:58.423Z,12.08
2022-09-28T09:17:00.464Z,11.72
2022-09-28T09:17:58.217Z,11.41
2022-09-28T09:18:58.210Z,11.20
2022-09-28T09:19:58.197Z,11.03
2022-09-28T09:20:58.188Z,10.94
2022-09-28T09:21:58.167Z,10.86
2022-09-28T09:22:58.158Z,10.84
2022-09-28T09:23:58.146Z,10.89
2022-09-28T09:24:58.127Z,10.86
2022-09-28T09:25:58.136Z,10.91
2022-09-28T09:26:58.105Z,10.95
2022-09-28T09:27:58.095Z,11.01
2022-09-28T09:28:58.077Z,11.13
2022-09-28T09:29:58.069Z,11.29
2022-09-28T09:30:58.132Z,11.38
2022-09-28T09:31:58.045Z,11.47
2022-09-28T09:32:58.041Z,11.65
2022-09-28T09:33:58.017Z,11.78
2022-09-28T09:34:58.007Z,12.09
2022-09-28T09:35:58.013Z,12.30
2022-09-28T09:36:57.998Z,12.30
2022-09-28T09:37:58.733Z,12.21
2022-09-28T09:38:57.948Z,12.16
2022-09-28T09:39:57.936Z,12.12
2022-09-28T09:40:58.029Z,12.06
2022-09-28T09:41:57.914Z,11.99
2022-09-28T09:42:57.895Z,11.86
2022-09-28T09:43:57.895Z,11.87
2022-09-28T09:44:57.875Z,12.02
2022-09-28T09:45:57.939Z,12.46
2022-09-28T09:46:57.846Z,12.20
2022-09-28T09:47:57.836Z,12.12
2022-09-28T09:48:57.815Z,12.06
2022-09-28T09:49:57.814Z,11.87
2022-09-28T09:50:57.806Z,11.74
2022-09-28T09:51:57.786Z,11.59
2022-09-28T09:52:57.766Z,11.53
2022-09-28T09:53:57.756Z,11.83
2022-09-28T09:54:57.736Z,12.63
2022-09-28T09:55:57.754Z,12.63
2022-09-28T09:56:57.719Z,12.77
2022-09-28T09:57:57.704Z,13.55
2022-09-28T09:58:57.684Z,14.34
2022-09-28T09:59:57.675Z,14.39
2022-09-28T10:00:57.710Z,14.86
2022-09-28T10:01:57.749Z,15.31
2022-09-28T10:02:57.713Z,15.59
2022-09-28T10:03:57.952Z,14.78
2022-09-28T10:04:57.603Z,15.27
2022-09-28T10:05:57.784Z,15.02
2022-09-28T10:06:57.584Z,14.35
2022-09-28T10:07:57.574Z,13.98
2022-09-28T10:08:57.554Z,14.10
2022-09-28T10:09:57.559Z,13.73
2022-09-28T10:10:57.548Z,13.33
2022-09-28T10:11:57.523Z,12.89
2022-09-28T10:12:57.513Z,12.66
2022-09-28T10:13:57.504Z,12.56
2022-09-28T10:14:57.484Z,12.56
2022-09-28T10:15:57.495Z,12.63
2022-09-28T10:16:57.483Z,13.77
2022-09-28T10:17:57.457Z,15.12
2022-09-28T10:18:57.433Z,16.04
2022-09-28T10:19:57.422Z,16.73
2022-09-28T10:20:57.443Z,16.70
2022-09-28T10:21:57.393Z,15.84
2022-09-28T10:22:57.373Z,14.94
2022-09-28T10:23:57.376Z,14.29
2022-09-28T10:24:57.353Z,14.09
2022-09-28T10:25:57.364Z,14.04
2022-09-28T10:26:57.326Z,13.84
2022-09-28T10:27:57.321Z,14.16
2022-09-28T10:28:57.293Z,14.54
2022-09-28T10:29:57.283Z,15.30
2022-09-28T10:30:57.354Z,15.03
2022-09-28T10:31:57.264Z,15.28
2022-09-28T10:32:57.243Z,16.20
2022-09-28T10:33:57.233Z,15.96
2022-09-28T10:34:57.222Z,15.17
2022-09-28T10:35:57.222Z,14.69
2022-09-28T10:36:57.202Z,14.74
2022-09-28T10:37:57.194Z,14.54
2022-09-28T10:38:57.164Z,14.61
2022-09-28T10:39:57.171Z,14.72
2022-09-28T10:40:57.167Z,14.88
2022-09-28T10:41:57.142Z,14.93
2022-09-28T10:42:57.112Z,14.84
2022-09-28T10:43:58.182Z,15.49
2022-09-28T10:44:57.090Z,16.26
2022-09-28T10:45:57.117Z,17.26
2022-09-28T10:47:04.127Z,17.43
2022-09-28T10:47:57.056Z,16.55
2022-09-28T10:48:57.080Z,16.33
2022-09-28T10:49:57.033Z,15.74
2022-09-28T10:50:57.016Z,15.01
2022-09-28T10:51:57.021Z,14.54
2022-09-28T10:52:56.985Z,14.24
2022-09-28T10:53:56.975Z,13.74
2022-09-28T10:54:56.964Z,13.54
2022-09-28T10:55:56.945Z,13.38
2022-09-28T10:56:56.944Z,13.41
2022-09-28T10:57:56.945Z,14.38
2022-09-28T10:58:56.946Z,15.08
2022-09-28T10:59:56.904Z,15.64
2022-09-28T11:00:56.929Z,15.67
2022-09-28T11:01:56.902Z,15.43
2022-09-28T11:02:56.871Z,15.74
2022-09-28T11:03:56.845Z,15.60
2022-09-28T11:04:56.833Z,15.57
2022-09-28T11:05:56.828Z,15.96
2022-09-28T11:06:56.867Z,16.48
2022-09-28T11:07:56.804Z,16.12
2022-09-28T11:08:56.786Z,15.26
2022-09-28T11:09:56.784Z,14.78
2022-09-28T11:10:56.754Z,14.39
2022-09-28T11:11:56.745Z,14.09
2022-09-28T11:12:56.725Z,13.94
2022-09-28T11:13:56.714Z,13.79
2022-09-28T11:14:56.704Z,13.59
2022-09-28T11:15:56.684Z,13.41
2022-09-28T11:16:56.722Z,13.11
2022-09-28T11:17:56.654Z,13.04
2022-09-28T11:18:56.653Z,13.11
2022-09-28T11:19:56.635Z,13.12
2022-09-28T11:20:56.633Z,13.07
2022-09-28T11:21:56.623Z,13.51
2022-09-28T11:22:56.593Z,13.92
2022-09-28T11:23:56.584Z,14.53
2022-09-28T11:24:56.574Z,15.56
2022-09-28T11:25:56.554Z,16.68
2022-09-28T11:26:56.559Z,17.43
2022-09-28T11:27:56.581Z,18.15
2022-09-28T11:28:56.534Z,18.37
2022-09-28T11:29:56.504Z,17.06
2022-09-28T11:30:56.534Z,16.04
2022-09-28T11:31:56.495Z,15.59
2022-09-28T11:32:56.465Z,15.19
2022-09-28T11:33:56.453Z,14.98
2022-09-28T11:34:59.586Z,15.76
2022-09-28T11:35:56.423Z,17.08
2022-09-28T11:36:59.635Z,18.27
2022-09-28T11:37:57.394Z,18.06
2022-09-28T11:38:56.386Z,17.15
2022-09-28T11:39:56.364Z,16.65
2022-09-28T11:40:56.436Z,16.25
2022-09-28T11:41:56.359Z,15.66
2022-09-28T11:42:56.398Z,15.21
2022-09-28T11:43:56.322Z,15.01
2022-09-28T11:44:56.312Z,14.90
2022-09-28T11:45:56.368Z,14.80
2022-09-28T11:46:56.294Z,14.68
2022-09-28T11:47:56.283Z,14.52
2022-09-28T11:48:56.263Z,14.19
2022-09-28T11:49:56.244Z,14.06
2022-09-28T11:50:56.234Z,13.95
2022-09-28T11:51:56.235Z,13.87
2022-09-28T11:52:56.214Z,13.83
2022-09-28T11:53:56.195Z,13.77
2022-09-28T11:54:56.184Z,13.65
2022-09-28T11:55:56.164Z,13.65
2022-09-28T11:56:56.184Z,13.70
2022-09-28T11:57:56.143Z,13.80
2022-09-28T11:58:56.133Z,13.81
2022-09-28T11:59:56.114Z,13.79
2022-09-28T12:00:56.122Z,13.69
2022-09-28T12:01:56.102Z,13.61
2022-09-28T12:02:56.177Z,13.55
2022-09-28T12:03:56.065Z,13.59
2022-09-28T12:04:56.054Z,13.69
2022-09-28T12:05:56.033Z,13.74
2022-09-28T12:06:56.116Z,13.83
2022-09-28T12:07:56.003Z,13.92
2022-09-28T12:08:56.016Z,14.20
2022-09-28T12:09:55.987Z,14.20
2022-09-28T12:10:55.974Z,14.24
2022-09-28T12:11:55.971Z,13.94
2022-09-28T12:12:55.962Z,13.76
2022-09-28T12:13:55.924Z,13.69
2022-09-28T12:14:55.914Z,13.55
2022-09-28T12:17:07.118Z,13.54
2022-09-28T12:17:56.922Z,13.63
2022-09-28T12:18:55.926Z,13.81
2022-09-28T12:19:55.852Z,13.98
2022-09-28T12:20:55.833Z,14.27
2022-09-28T12:21:55.835Z,14.07
2022-09-28T12:22:55.945Z,13.99
2022-09-28T12:23:55.793Z,13.95
2022-09-28T12:24:55.783Z,13.92
2022-09-28T12:25:55.772Z,13.91
2022-09-28T12:26:55.773Z,13.87
2022-09-28T12:27:55.752Z,13.83
2022-09-28T12:28:55.736Z,13.76
2022-09-28T12:29:55.716Z,13.74
2022-09-28T12:30:55.743Z,13.69
2022-09-28T12:31:55.727Z,13.63
2022-09-28T12:32:55.672Z,13.59
2022-09-28T12:33:55.670Z,13.63
2022-09-28T12:34:55.653Z,13.67
2022-09-28T12:35:55.687Z,13.67
2022-09-28T12:36:55.642Z,13.65
2022-09-28T12:37:55.613Z,13.71
2022-09-28T12:39:17.497Z,13.77
2022-09-28T12:39:58.333Z,13.95
2022-09-28T12:40:55.651Z,14.01
2022-09-28T12:41:55.574Z,14.06
2022-09-28T12:42:55.552Z,14.14
2022-09-28T12:43:55.533Z,14.34
2022-09-28T12:44:59.276Z,14.68
2022-09-28T12:46:10.907Z,14.75
2022-09-28T12:46:56.575Z,14.86
2022-09-28T12:47:55.520Z,14.86
2022-09-28T12:49:33.146Z,14.93
2022-09-28T12:50:37.229Z,15.08
2022-09-28T12:50:57.891Z,15.21
2022-09-28T12:51:55.458Z,15.26
2022-09-28T12:52:58.121Z,15.30
2022-09-28T12:53:56.400Z,15.33
2022-09-28T12:54:55.392Z,15.01
2022-09-28T12:55:55.371Z,14.75
2022-09-28T12:56:55.371Z,14.80
2022-09-28T12:57:55.352Z,14.80
2022-09-28T12:58:55.342Z,14.98
2022-09-28T12:59:55.332Z,15.15
2022-09-28T13:00:55.311Z,15.41
2022-09-28T13:01:55.367Z,15.54
2022-09-28T13:02:55.352Z,15.56
2022-09-28T13:03:55.271Z,15.38
2022-09-28T13:04:55.268Z,15.59
2022-09-28T13:05:55.251Z,15.59
2022-09-28T13:06:55.252Z,15.46
2022-09-28T13:07:55.221Z,15.36
2022-09-28T13:08:55.224Z,15.30
2022-09-28T13:09:55.190Z,15.28
2022-09-28T13:10:55.195Z,15.31
2022-09-28T13:11:55.171Z,15.24
2022-09-28T13:12:55.161Z,15.03
2022-09-28T13:13:55.140Z,14.86
2022-09-28T13:14:55.130Z,14.68
2022-09-28T13:15:55.147Z,14.69
2022-09-28T13:16:59.756Z,14.74
2022-09-28T13:17:56.081Z,14.81
2022-09-28T13:18:55.083Z,14.83
2022-09-28T13:19:55.079Z,14.87
2022-09-28T13:20:55.052Z,14.95
2022-09-28T13:21:55.062Z,14.94
2022-09-28T13:22:55.028Z,14.91
2022-09-28T13:24:04.309Z,14.95
2022-09-28T13:24:55.991Z,15.05
2022-09-28T13:25:54.992Z,15.28
2022-09-28T13:26:54.983Z,15.41
2022-09-28T13:27:54.978Z,15.52
2022-09-28T13:28:54.940Z,16.01
2022-09-28T13:29:56.645Z,16.04
2022-09-28T13:30:55.001Z,16.06
2022-09-28T13:31:54.920Z,15.99
2022-09-28T13:32:54.891Z,15.79
2022-09-28T13:33:54.883Z,15.63
2022-09-28T13:34:54.862Z,15.48
2022-09-28T13:35:54.851Z,15.52
2022-09-28T13:36:54.870Z,15.54
2022-09-28T13:37:54.829Z,15.56
2022-09-28T13:38:54.829Z,16.67
2022-09-28T13:39:54.811Z,17.67
2022-09-28T13:40:54.829Z,17.10
2022-09-28T13:41:54.781Z,16.67
2022-09-28T13:42:54.771Z,16.22
2022-09-28T13:43:54.750Z,15.94
2022-09-28T13:44:54.739Z,15.64
2022-09-28T13:45:54.805Z,15.43
2022-09-28T13:46:54.712Z,15.31
2022-09-28T13:47:54.710Z,15.26
2022-09-28T13:48:54.691Z,15.35
2022-09-28T13:49:54.671Z,15.54
2022-09-28T13:50:54.672Z,15.56
2022-09-28T13:51:54.650Z,15.70
2022-09-28T13:52:54.655Z,15.94
2022-09-28T13:53:54.622Z,15.82
2022-09-28T13:54:54.611Z,15.72
2022-09-28T13:55:54.591Z,15.63
2022-09-28T13:56:54.600Z,15.67
2022-09-28T13:57:54.588Z,15.76
2022-09-28T13:58:54.587Z,15.76
2022-09-28T13:59:54.541Z,15.74
2022-09-28T14:00:54.531Z,15.76
2022-09-28T14:01:54.593Z,16.03
2022-09-28T14:02:54.612Z,16.23
2022-09-28T14:03:54.491Z,16.77
2022-09-28T14:04:54.487Z,16.63
2022-09-28T14:05:54.462Z,16.62
2022-09-28T14:06:55.651Z,17.63
2022-09-28T14:07:57.162Z,17.59
2022-09-28T14:08:54.431Z,17.74
2022-09-28T14:09:54.413Z,18.46
2022-09-28T14:10:54.425Z,19.08
2022-09-28T14:11:54.381Z,19.02
2022-09-28T14:12:54.391Z,17.92
2022-09-28T14:13:54.361Z,18.61
2022-09-28T14:14:54.360Z,18.94
2022-09-28T14:15:54.363Z,19.32
2022-09-28T14:16:54.363Z,19.73
2022-09-28T14:17:54.313Z,20.09
2022-09-28T14:18:54.303Z,20.50
2022-09-28T14:19:54.302Z,20.72
2022-09-28T14:20:54.281Z,20.84
2022-09-28T14:21:54.274Z,19.91
2022-09-28T14:22:54.253Z,18.79
2022-09-28T14:23:58.942Z,18.55
2022-09-28T14:24:55.223Z,19.50
2022-09-28T14:25:54.214Z,19.91
2022-09-28T14:26:54.215Z,20.08
2022-09-28T14:27:54.185Z,20.33
2022-09-28T14:28:54.173Z,19.55
2022-09-28T14:29:54.162Z,18.31
2022-09-28T14:30:54.241Z,17.38
2022-09-28T14:31:54.144Z,16.83
2022-09-28T14:32:54.125Z,16.31
2022-09-28T14:33:54.106Z,15.97
2022-09-28T14:34:54.115Z,15.76
2022-09-28T14:35:54.087Z,15.57
2022-09-28T14:36:54.075Z,15.38
2022-09-28T14:37:54.068Z,15.27
2022-09-28T14:38:54.044Z,15.20
2022-09-28T14:39:54.034Z,16.04
2022-09-28T14:40:54.056Z,16.85
2022-09-28T14:41:54.004Z,17.79
2022-09-28T14:42:54.053Z,18.70
2022-09-28T14:43:53.997Z,18.94
2022-09-28T14:44:53.988Z,19.43
2022-09-28T14:45:54.007Z,19.94
2022-09-28T14:46:53.953Z,20.21
2022-09-28T14:47:53.951Z,20.34
2022-09-28T14:48:53.970Z,20.13
2022-09-28T14:49:53.905Z,20.33
2022-09-28T14:50:53.886Z,20.12
2022-09-28T14:51:53.875Z,19.87
2022-09-28T14:52:53.876Z,18.95
2022-09-28T14:53:53.856Z,19.24
2022-09-28T14:54:53.866Z,18.97
2022-09-28T14:55:53.826Z,18.47
2022-09-28T14:56:53.830Z,17.04
2022-09-28T14:57:53.807Z,16.25
2022-09-28T14:58:53.789Z,15.96
2022-09-28T14:59:53.779Z,15.82
2022-09-28T15:00:53.771Z,15.76
2022-09-28T15:01:53.757Z,16.01
2022-09-28T15:02:53.747Z,16.77
2022-09-28T15:03:53.793Z,17.53
2022-09-28T15:04:53.772Z,17.84
2022-09-28T15:05:53.760Z,18.44
2022-09-28T15:06:53.689Z,18.83
2022-09-28T15:07:53.677Z,19.36
2022-09-28T15:08:53.659Z,19.58
2022-09-28T15:09:53.759Z,20.08
2022-09-28T15:10:53.641Z,20.47
2022-09-28T15:11:53.628Z,20.76
2022-09-28T15:12:53.637Z,21.06
2022-09-28T15:13:53.597Z,21.11
2022-09-28T15:14:53.590Z,21.27
2022-09-28T15:15:53.596Z,21.27
2022-09-28T15:16:53.567Z,20.81
2022-09-28T15:17:53.560Z,20.38
2022-09-28T15:18:53.538Z,20.34
2022-09-28T15:19:53.519Z,20.49
2022-09-28T15:20:53.518Z,20.64
2022-09-28T15:21:53.499Z,20.93
2022-09-28T15:22:53.499Z,20.98
2022-09-28T15:23:53.469Z,20.98
2022-09-28T15:24:53.469Z,20.91
2022-09-28T15:25:53.449Z,20.99
2022-09-28T15:26:53.440Z,21.20
2022-09-28T15:27:53.431Z,21.44
2022-09-28T15:28:53.419Z,20.56
2022-09-28T15:29:53.400Z,19.29
2022-09-28T15:30:53.404Z,18.07
2022-09-28T15:31:54.610Z,17.38
2022-09-28T15:32:53.400Z,16.98
2022-09-28T15:33:53.351Z,16.73
2022-09-28T15:34:53.342Z,16.53
2022-09-28T15:35:53.343Z,16.09
2022-09-28T15:36:53.312Z,15.84
2022-09-28T15:37:53.313Z,16.06
2022-09-28T15:38:53.290Z,16.22
2022-09-28T15:39:53.281Z,16.34
2022-09-28T15:40:53.330Z,16.37
2022-09-28T15:41:53.245Z,17.20
2022-09-28T15:42:57.103Z,17.41
2022-09-28T15:43:54.220Z,16.85
2022-09-28T15:44:53.211Z,16.70
2022-09-28T15:45:53.212Z,16.74
2022-09-28T15:46:53.199Z,16.31
2022-09-28T15:47:53.182Z,15.93
2022-09-28T15:48:53.171Z,15.59
2022-09-28T15:49:53.141Z,15.17
2022-09-28T15:50:53.131Z,14.81
2022-09-28T15:51:53.120Z,14.52
2022-09-28T15:52:53.130Z,14.20
2022-09-28T15:53:53.112Z,13.98
2022-09-28T15:54:53.081Z,13.81
2022-09-28T15:55:53.093Z,13.73
2022-09-28T15:56:53.060Z,13.69
2022-09-28T15:57:53.042Z,13.73
2022-09-28T15:58:53.051Z,13.73
2022-09-28T15:59:53.012Z,13.59
2022-09-28T16:00:53.021Z,13.55
2022-09-28T16:01:53.041Z,13.47
2022-09-28T16:02:53.059Z,13.49
2022-09-28T16:03:52.961Z,13.55
2022-09-28T16:04:52.952Z,13.56
2022-09-28T16:05:52.954Z,13.46
2022-09-28T16:06:52.929Z,13.40
2022-09-28T16:07:56.055Z,13.40
2022-09-28T16:08:52.900Z,13.47
2022-09-28T16:09:52.881Z,13.52
2022-09-28T16:10:52.880Z,13.51
2022-09-28T16:11:52.891Z,13.49
2022-09-28T16:12:52.880Z,13.47
2022-09-28T16:13:52.851Z,13.41
2022-09-28T16:14:52.845Z,13.38
2022-09-28T16:15:52.835Z,13.36
2022-09-28T16:16:52.800Z,13.36
2022-09-28T16:17:52.801Z,13.38
2022-09-28T16:18:52.772Z,13.36
2022-09-28T16:19:52.751Z,13.32
2022-09-28T16:20:52.803Z,13.29
2022-09-28T16:21:52.721Z,13.18
2022-09-28T16:22:52.722Z,13.11
2022-09-28T16:23:52.710Z,13.07
2022-09-28T16:24:52.690Z,13.04
2022-09-28T16:25:52.680Z,13.02
2022-09-28T16:26:52.681Z,13.00
2022-09-28T16:27:52.650Z,12.97
2022-09-28T16:28:52.664Z,12.93
2022-09-28T16:29:52.621Z,12.85
2022-09-28T16:30:52.651Z,12.81
2022-09-28T16:31:52.654Z,12.77
2022-09-28T16:32:52.591Z,12.70
2022-09-28T16:33:52.578Z,12.64
2022-09-28T16:34:52.561Z,12.63
2022-09-28T16:35:52.551Z,12.62
2022-09-28T16:36:52.541Z,12.60
2022-09-28T16:37:52.520Z,12.60
2022-09-28T16:38:52.529Z,12.60
2022-09-28T16:39:52.497Z,12.59
2022-09-28T16:40:52.548Z,12.54
2022-09-28T16:41:52.489Z,12.46
2022-09-28T16:42:52.459Z,12.41
2022-09-28T16:43:52.487Z,12.34
2022-09-28T16:44:52.436Z,12.30
2022-09-28T16:45:52.485Z,12.29
2022-09-28T16:46:52.484Z,12.24
2022-09-28T16:47:59.508Z,12.20
2022-09-28T16:48:52.374Z,12.13
2022-09-28T16:49:52.373Z,12.09
2022-09-28T16:50:52.351Z,12.08
2022-09-28T16:51:52.345Z,12.05
2022-09-28T16:52:54.795Z,12.04
2022-09-28T16:53:52.323Z,12.01
2022-09-28T16:54:52.313Z,11.96
2022-09-28T16:55:52.295Z,11.93
2022-09-28T16:56:52.277Z,11.87
2022-09-28T16:57:52.265Z,11.82
2022-09-28T16:58:52.262Z,11.77
2022-09-28T16:59:52.243Z,11.72
2022-09-28T17:00:52.224Z,11.68
2022-09-28T17:01:52.243Z,11.64
2022-09-28T17:02:52.208Z,11.56
2022-09-28T17:03:52.191Z,11.53
2022-09-28T17:04:52.171Z,11.52
2022-09-28T17:05:52.161Z,11.56
2022-09-28T17:06:52.143Z,11.59
2022-09-28T17:07:52.131Z,11.62
2022-09-28T17:08:52.131Z,11.65
2022-09-28T17:09:52.111Z,11.70
2022-09-28T17:11:13.136Z,11.74
2022-09-28T17:11:53.081Z,11.80
2022-09-28T17:12:52.076Z,11.85
2022-09-28T17:13:52.105Z,11.89
2022-09-28T17:14:52.040Z,12.26
2022-09-28T17:15:52.070Z,12.57
2022-09-28T17:17:07.314Z,12.85
2022-09-28T17:17:53.001Z,13.22
2022-09-28T17:18:52.020Z,13.32
2022-09-28T17:19:51.979Z,13.25
2022-09-28T17:20:51.961Z,13.11
2022-09-28T17:21:51.950Z,12.95
2022-09-28T17:22:51.940Z,12.74
2022-09-28T17:23:51.939Z,12.57
2022-09-28T17:24:51.913Z,12.41
2022-09-28T17:25:51.899Z,12.26
2022-09-28T17:26:51.886Z,12.15
2022-09-28T17:27:51.879Z,12.11
2022-09-28T17:28:51.867Z,12.05
2022-09-28T17:29:51.851Z,11.97
2022-09-28T17:30:51.892Z,11.90
2022-09-28T17:31:51.820Z,11.90